Airfield :
LOGIN :

Register | Disclaimer

   EN    FR    IT 

 










Legend :    VFR   Marginal VFR   IFR   Intensive IFR   Very Intensive IFR
Visi :
Ceiling :
>= 8 km
>= 3000ft
5 to 8 km
1000 to 3000 ft
1500m to 5 km
500 to 1000 ft
800 to 1500m
200 to 500 ft
< 800m
< 200 ft
Symbols :   Thunderstorms  Fog  Heavy snow  Heavy precipitations  Wind > 20 kt
SIGMETs :     Misc.  Thunderstorms  Icing  Turbulence  Mountain Waves  Volcanic Ashes






- Airport Elevation : 17 ft
- IATA code : CPH


EKCH - København - Kastrup (Copenhagen)

CURRENT METAR :
  • 210420Z 06005KT 4000 BR NSC 11/11 Q1017 BECMG 6000

EXPIRED METARs :
  • 210350Z 05006KT 3000 BR BKN003 11/11 Q1017 TEMPO 1200 BCFG BKN006
  • 210320Z 05005KT 3000 BR BKN003 11/11 Q1017 TEMPO 1200 BCFG BKN006
  • 210250Z 05005KT 3000 BR BKN003 12/11 Q1017 TEMPO 1200 BCFG BKN006
  • 210220Z 06004KT 0800 R22L/P1500N R04L/P1500U R12/P1500N FG BKN003 12/12 Q1016 TEMPO 700 BKN006
  • 210150Z 06003KT 0800 R22L/P1500U R04L/0900U R12/P1500N FG BKN002 11/11 Q1016 TEMPO 700 BKN006

TAF AMD TAF EKCH
Valid from the 21 at 03:00 until the 22 at 00:00 UTC


210303Z 2103/2124 06005KT 6000 SCT020
TEMPO 2103/2105 1200 BCFG BKN002
TEMPO 2110/2118 4000 -RADZ BKN012
BECMG 2118/2121 13010KT 4000 BR BKN008
TEMPO 2121/2124 8000 NSW BKN018



MET'MAP, your aeronautical weather chart ! - Copyright ORBIFLY December 2007 - Disclaimer

ORBIFLY MET'MAP TEAM :

Programming & Development : Alexandra Zaïnal
Concept & Development : Baudouin d'Aumeries
Co-Development & Prog : Marc-Olivier Méhu
Technical & hardware support : Manuel Goepfert

Contact : metmap@orbifly.com




SOURCES & CREDITS :

   NOAA